Time;durP1;ratioP1;P1;durP2;ratioP2;P2;SDS_P1;SDS_P2;PMS_P1;PMS_P2;Temp;Humidity;BMP_temperature;BMP_pressure;BME280_temperature;BME280_humidity;BME280_pressure;Samples;Min_cycle;Max_cycle;Signal;HPM_P1;HPM_P2
2023/11/15 00:01:00;;;;;;;;;;;;;;;;;;5054695;28;20917;-76
2023/11/15 00:03:29;;;;;;;;;;;;;;;;;;5042768;28;20283;-73
2023/11/15 00:05:54;;;;;;;;;;;;;;;;;;5046386;28;19944;-74
2023/11/15 00:08:20;;;;;;;;;;;;;;;;;;5043172;28;19971;-74
2023/11/15 00:10:48;;;;;;;;;;;;;;;;;;5056999;28;20013;-74
2023/11/15 00:13:14;;;;;;;;;;;;;;;;;;5042109;28;20019;-74
2023/11/15 00:15:39;;;;;;;;;;;;;;;;;;5042739;28;20068;-73
2023/11/15 00:18:05;;;;;;;;;;;;;;;;;;5060446;28;19937;-71
2023/11/15 00:20:33;;;;;;;;;;;;;;;;;;5057815;28;19930;-74
2023/11/15 00:22:58;;;;;;;;;;;;;;;;;;5063118;28;19985;-73
2023/11/15 00:25:24;;;;;;;;;;;;;;;;;;5054221;28;19920;-71
2023/11/15 00:27:49;;;;;;;;;;;;;;;;;;5069950;28;19920;-72
2023/11/15 00:30:18;;;;;;;;;;;;;;;;;;5035000;28;19945;-72
2023/11/15 00:32:43;;;;;;;;;;;;;;;;;;5041662;28;20002;-74
2023/11/15 00:35:12;;;;;;;;;;;;;;;;;;5042239;28;19924;-72
2023/11/15 00:37:37;;;;;;;;;;;;;;;;;;5058438;28;19924;-72
2023/11/15 00:40:04;;;;;;;;;;;;;;;;;;5053620;28;19974;-72
2023/11/15 00:42:31;;;;;;;;;;;;;;;;;;5070138;28;20041;-72
2023/11/15 00:44:57;;;;;;;;;;;;;;;;;;5057382;28;19916;-72
2023/11/15 00:47:22;;;;;;;;;;;;;;;;;;5057403;28;19973;-72
2023/11/15 00:49:47;;;;;;;;;;;;;;;;;;5068841;28;19920;-73
2023/11/15 00:52:13;;;;;;;;;;;;;;;;;;5038393;28;20317;-71
2023/11/15 00:54:39;;;;;;;;;;;;;;;;;;5057275;28;20240;-73
2023/11/15 00:57:04;;;;;;;;;;;;;;;;;;5041062;28;19916;-72
2023/11/15 00:59:36;;;;;;;;;;;;;;;;;;5069421;28;19920;-72
2023/11/15 01:02:05;;;;;;;;;;;;;;;;;;5055603;28;20279;-73
2023/11/15 01:04:30;;;;;;;;;;;;;;;;;;5040707;28;19920;-73
2023/11/15 01:06:58;;;;;;;;;;;;;;;;;;5067933;28;20504;-73
2023/11/15 01:09:23;;;;;;;;;;;;;;;;;;5055281;28;20163;-73
2023/11/15 01:11:50;;;;;;;;;;;;;;;;;;5039007;28;20398;-72
2023/11/15 01:14:18;;;;;;;;;;;;;;;;;;5052736;28;20447;-72
2023/11/15 01:16:43;;;;;;;;;;;;;;;;;;5057187;28;19920;-72
2023/11/15 01:19:10;;;;;;;;;;;;;;;;;;5050222;28;19920;-72
2023/11/15 01:21:35;;;;;;;;;;;;;;;;;;5053463;28;19915;-72
2023/11/15 01:24:00;;;;;;;;;;;;;;;;;;5050611;28;19917;-72
2023/11/15 01:26:28;;;;;;;;;;;;;;;;;;5067932;28;20816;-74
2023/11/15 01:28:54;;;;;;;;;;;;;;;;;;5039335;28;19920;-72
2023/11/15 01:31:20;;;;;;;;;;;;;;;;;;5066239;28;19924;-71
2023/11/15 01:33:45;;;;;;;;;;;;;;;;;;5056602;28;20482;-71
2023/11/15 01:36:10;;;;;;;;;;;;;;;;;;5048846;28;20414;-72
2023/11/15 01:38:40;;;;;;;;;;;;;;;;;;5065717;28;19948;-72
2023/11/15 01:41:06;;;;;;;;;;;;;;;;;;5039062;28;20360;-72
2023/11/15 01:43:31;;;;;;;;;;;;;;;;;;5037862;28;20047;-72
2023/11/15 01:45:59;;;;;;;;;;;;;;;;;;5068361;28;20077;-72
2023/11/15 01:48:24;;;;;;;;;;;;;;;;;;5066114;28;20283;-72
2023/11/15 01:50:50;;;;;;;;;;;;;;;;;;5052302;28;19938;-71
2023/11/15 01:53:15;;;;;;;;;;;;;;;;;;5055284;28;19978;-71
2023/11/15 01:55:40;;;;;;;;;;;;;;;;;;5068922;28;20056;-72
2023/11/15 01:58:06;;;;;;;;;;;;;;;;;;5071342;28;20358;-72
2023/11/15 02:00:32;;;;;;;;;;;;;;;;;;5050131;28;19920;-72
2023/11/15 02:03:01;;;;;;;;;;;;;;;;;;5069777;28;21852;-72
2023/11/15 02:05:27;;;;;;;;;;;;;;;;;;5055661;28;20395;-72
2023/11/15 02:07:52;;;;;;;;;;;;;;;;;;5072537;28;20337;-72
2023/11/15 02:10:18;;;;;;;;;;;;;;;;;;5071508;28;20434;-72
2023/11/15 02:12:43;;;;;;;;;;;;;;;;;;5072864;28;19935;-72
2023/11/15 02:15:09;;;;;;;;;;;;;;;;;;5049275;28;19912;-71
2023/11/15 02:17:34;;;;;;;;;;;;;;;;;;5071645;28;19927;-71
2023/11/15 02:19:59;;;;;;;;;;;;;;;;;;5068262;28;19916;-71
2023/11/15 02:22:25;;;;;;;;;;;;;;;;;;5046118;28;19920;-72
2023/11/15 02:24:50;;;;;;;;;;;;;;;;;;5049150;28;19916;-72
2023/11/15 02:27:16;;;;;;;;;;;;;;;;;;5070938;28;19932;-71
2023/11/15 02:29:41;;;;;;;;;;;;;;;;;;5069741;28;19946;-71
2023/11/15 02:32:06;;;;;;;;;;;;;;;;;;5071474;28;20803;-71
2023/11/15 02:34:32;;;;;;;;;;;;;;;;;;5057822;28;20018;-72
2023/11/15 02:36:57;;;;;;;;;;;;;;;;;;5076579;28;19928;-72
2023/11/15 02:39:23;;;;;;;;;;;;;;;;;;5074137;28;19989;-71
2023/11/15 02:41:48;;;;;;;;;;;;;;;;;;5076011;28;19916;-72
2023/11/15 02:44:13;;;;;;;;;;;;;;;;;;5072849;28;20014;-72
2023/11/15 02:46:39;;;;;;;;;;;;;;;;;;5072030;28;20026;-73
2023/11/15 02:49:04;;;;;;;;;;;;;;;;;;5056624;28;19927;-71
2023/11/15 02:51:29;;;;;;;;;;;;;;;;;;5074058;28;19935;-72
2023/11/15 02:53:55;;;;;;;;;;;;;;;;;;5058746;28;20256;-72
2023/11/15 02:56:20;;;;;;;;;;;;;;;;;;5051164;28;19927;-71
2023/11/15 02:58:45;;;;;;;;;;;;;;;;;;5051750;28;20325;-71
2023/11/15 03:01:11;;;;;;;;;;;;;;;;;;5076164;28;19916;-70
2023/11/15 03:03:36;;;;;;;;;;;;;;;;;;5071035;28;20038;-72
2023/11/15 03:06:03;;;;;;;;;;;;;;;;;;5076028;28;20036;-71
2023/11/15 03:08:29;;;;;;;;;;;;;;;;;;5075515;28;19916;-72
2023/11/15 03:10:55;;;;;;;;;;;;;;;;;;5048968;28;19986;-72
2023/11/15 03:13:20;;;;;;;;;;;;;;;;;;5075090;28;21862;-72
2023/11/15 03:15:48;;;;;;;;;;;;;;;;;;5058156;28;20510;-71
2023/11/15 03:18:13;;;;;;;;;;;;;;;;;;5059206;28;19922;-72
2023/11/15 03:20:39;;;;;;;;;;;;;;;;;;5067871;28;19931;-71
2023/11/15 03:23:04;;;;;;;;;;;;;;;;;;5054648;28;19919;-71
2023/11/15 03:25:29;;;;;;;;;;;;;;;;;;5074558;28;20055;-71
2023/11/15 03:27:55;;;;;;;;;;;;;;;;;;5050212;28;19916;-72
2023/11/15 03:30:20;;;;;;;;;;;;;;;;;;5075919;28;20325;-72
2023/11/15 03:32:46;;;;;;;;;;;;;;;;;;5073751;28;19931;-72
2023/11/15 03:35:11;;;;;;;;;;;;;;;;;;5057280;28;19916;-72
2023/11/15 03:40:54;;;;;;;;;;;;;;;;;;5070162;28;20240;-71
2023/11/15 03:46:37;;;;;;;;;;;;;;;;;;5074541;28;19931;-71
2023/11/15 03:49:02;;;;;;;;;;;;;;;;;;5058397;28;19942;-71
2023/11/15 03:51:27;;;;;;;;;;;;;;;;;;5047524;28;19989;-71
2023/11/15 03:53:53;;;;;;;;;;;;;;;;;;5037000;28;20103;-72
2023/11/15 03:56:18;;;;;;;;;;;;;;;;;;5040589;28;19928;-71
2023/11/15 03:58:44;;;;;;;;;;;;;;;;;;5057947;28;19927;-71
2023/11/15 04:01:09;;;;;;;;;;;;;;;;;;5042218;28;19923;-71
2023/11/15 04:03:34;;;;;;;;;;;;;;;;;;5045831;28;19920;-71
2023/11/15 04:06:00;;;;;;;;;;;;;;;;;;5069195;28;19998;-72
2023/11/15 04:08:27;;;;;;;;;;;;;;;;;;5070172;28;19920;-72
2023/11/15 04:10:52;;;;;;;;;;;;;;;;;;5069640;28;19916;-71
2023/11/15 04:13:20;;;;;;;;;;;;;;;;;;5054580;28;19930;-71
2023/11/15 04:15:45;;;;;;;;;;;;;;;;;;5039485;28;19919;-71
2023/11/15 04:18:11;;;;;;;;;;;;;;;;;;5058681;28;20272;-71
2023/11/15 04:20:36;;;;;;;;;;;;;;;;;;5068031;28;19912;-72
2023/11/15 04:23:02;;;;;;;;;;;;;;;;;;5069144;28;19977;-72
2023/11/15 04:25:27;;;;;;;;;;;;;;;;;;5052571;28;20453;-72
2023/11/15 04:27:55;;;;;;;;;;;;;;;;;;5055845;28;19916;-72
2023/11/15 04:30:21;;;;;;;;;;;;;;;;;;5070251;28;19942;-72
2023/11/15 04:32:47;;;;;;;;;;;;;;;;;;5057051;28;20479;-72
2023/11/15 04:35:12;;;;;;;;;;;;;;;;;;5068847;28;20617;-72
2023/11/15 04:37:38;;;;;;;;;;;;;;;;;;5056553;28;19992;-72
2023/11/15 04:40:04;;;;;;;;;;;;;;;;;;5056146;28;20003;-72
2023/11/15 04:45:22;;;;;;;;;;;;;;;;;;5053018;28;20597;-72
2023/11/15 04:47:47;;;;;;;;;;;;;;;;;;5054974;28;19939;-71
2023/11/15 04:50:13;;;;;;;;;;;;;;;;;;5037815;28;20439;-72
2023/11/15 04:52:38;;;;;;;;;;;;;;;;;;5089999;27;19924;-72
2023/11/15 04:55:03;;;;;;;;;;;;;;;;;;5077289;27;20367;-72
2023/11/15 04:57:33;;;;;;;;;;;;;;;;;;5058697;27;19927;-72
2023/11/15 04:59:58;;;;;;;;;;;;;;;;;;5077965;27;19915;-72
2023/11/15 05:02:27;;;;;;;;;;;;;;;;;;5093141;27;19916;-72
2023/11/15 05:04:52;;;;;;;;;;;;;;;;;;5082962;27;20018;-73
2023/11/15 05:07:18;;;;;;;;;;;;;;;;;;5059365;27;19920;-71
2023/11/15 05:09:46;;;;;;;;;;;;;;;;;;5076020;28;19920;-73
2023/11/15 05:12:15;;;;;;;;;;;;;;;;;;5092799;27;19930;-71
2023/11/15 05:14:41;;;;;;;;;;;;;;;;;;5077562;27;19916;-71
2023/11/15 05:17:07;;;;;;;;;;;;;;;;;;5075774;28;19984;-71
2023/11/15 05:19:34;;;;;;;;;;;;;;;;;;5073832;27;19990;-73
2023/11/15 05:21:59;;;;;;;;;;;;;;;;;;5094694;28;19915;-73
2023/11/15 05:24:25;;;;;;;;;;;;;;;;;;5057444;28;19943;-73
2023/11/15 05:26:50;;;;;;;;;;;;;;;;;;5093087;27;19937;-71
2023/11/15 05:29:18;;;;;;;;;;;;;;;;;;5059611;27;20034;-73
2023/11/15 05:31:43;;;;;;;;;;;;;;;;;;5094099;27;19946;-70
2023/11/15 05:34:09;;;;;;;;;;;;;;;;;;5060768;28;19966;-73
2023/11/15 05:36:34;;;;;;;;;;;;;;;;;;5072688;28;19947;-71
2023/11/15 05:42:17;;;;;;;;;;;;;;;;;;5091104;28;19923;-74
2023/11/15 05:44:42;;;;;;;;;;;;;;;;;;5073320;28;19916;-71
2023/11/15 05:47:07;;;;;;;;;;;;;;;;;;5072851;28;20345;-71
2023/11/15 05:49:33;;;;;;;;;;;;;;;;;;5065141;28;20048;-71
2023/11/15 05:52:00;;;;;;;;;;;;;;;;;;5092414;28;20016;-71
2023/11/15 05:54:27;;;;;;;;;;;;;;;;;;5059854;28;21022;-71
2023/11/15 05:56:55;;;;;;;;;;;;;;;;;;5059454;28;19915;-71
2023/11/15 05:59:20;;;;;;;;;;;;;;;;;;5083052;28;19920;-71
2023/11/15 06:01:46;;;;;;;;;;;;;;;;;;5076950;28;19923;-72
2023/11/15 06:04:11;;;;;;;;;;;;;;;;;;5061593;27;19919;-71
2023/11/15 06:06:36;;;;;;;;;;;;;;;;;;5081758;27;19923;-71
2023/11/15 06:09:04;;;;;;;;;;;;;;;;;;5075023;27;19926;-73
2023/11/15 06:11:30;;;;;;;;;;;;;;;;;;5095947;27;20346;-73
2023/11/15 06:13:56;;;;;;;;;;;;;;;;;;5067962;27;19920;-73
2023/11/15 06:16:22;;;;;;;;;;;;;;;;;;5077974;27;19943;-73
2023/11/15 06:18:47;;;;;;;;;;;;;;;;;;5077779;27;19930;-71
2023/11/15 06:21:13;;;;;;;;;;;;;;;;;;5064045;27;19920;-73
2023/11/15 06:23:38;;;;;;;;;;;;;;;;;;5079606;27;19942;-71
2023/11/15 06:26:04;;;;;;;;;;;;;;;;;;5063674;27;19916;-73
2023/11/15 06:28:29;;;;;;;;;;;;;;;;;;5092825;27;19954;-73
2023/11/15 06:30:54;;;;;;;;;;;;;;;;;;5081039;27;19923;-73
2023/11/15 06:33:20;;;;;;;;;;;;;;;;;;5076851;28;19919;-73
2023/11/15 06:35:45;;;;;;;;;;;;;;;;;;5076330;27;19999;-73
2023/11/15 06:38:13;;;;;;;;;;;;;;;;;;5063018;27;19916;-73
2023/11/15 06:40:42;;;;;;;;;;;;;;;;;;5062469;27;19919;-73
2023/11/15 06:43:10;;;;;;;;;;;;;;;;;;5082298;27;19968;-73
2023/11/15 06:45:38;;;;;;;;;;;;;;;;;;5076714;27;19927;-74
2023/11/15 06:48:03;;;;;;;;;;;;;;;;;;5062636;27;19916;-74
2023/11/15 06:50:28;;;;;;;;;;;;;;;;;;5091711;27;19919;-73
2023/11/15 06:52:53;;;;;;;;;;;;;;;;;;5060757;28;19931;-71
2023/11/15 06:55:19;;;;;;;;;;;;;;;;;;5070089;28;19917;-73
2023/11/15 06:57:44;;;;;;;;;;;;;;;;;;5072257;28;20171;-72
2023/11/15 07:00:11;;;;;;;;;;;;;;;;;;5054967;28;19920;-71
2023/11/15 07:02:36;;;;;;;;;;;;;;;;;;5069455;28;19919;-73
2023/11/15 07:05:03;;;;;;;;;;;;;;;;;;5042678;28;19973;-72
2023/11/15 07:07:28;;;;;;;;;;;;;;;;;;5057751;28;20632;-72
2023/11/15 07:09:54;;;;;;;;;;;;;;;;;;5042748;28;19916;-72
2023/11/15 07:12:20;;;;;;;;;;;;;;;;;;5050520;28;20877;-73
2023/11/15 07:14:45;;;;;;;;;;;;;;;;;;5055122;28;19920;-73
2023/11/15 07:17:12;;;;;;;;;;;;;;;;;;5055147;28;19919;-73
2023/11/15 07:19:38;;;;;;;;;;;;;;;;;;5071423;28;19916;-72
2023/11/15 07:22:03;;;;;;;;;;;;;;;;;;5070196;28;19927;-72
2023/11/15 07:24:29;;;;;;;;;;;;;;;;;;5040029;28;19921;-72
2023/11/15 07:26:54;;;;;;;;;;;;;;;;;;5055328;28;20359;-73
2023/11/15 07:29:20;;;;;;;;;;;;;;;;;;5055936;28;20414;-73
2023/11/15 07:31:45;;;;;;;;;;;;;;;;;;5058099;28;20601;-72
2023/11/15 07:34:11;;;;;;;;;;;;;;;;;;5069336;28;20422;-73
2023/11/15 07:36:36;;;;;;;;;;;;;;;;;;5060546;28;20010;-72
2023/11/15 07:39:04;;;;;;;;;;;;;;;;;;5068266;28;19920;-73
2023/11/15 07:41:29;;;;;;;;;;;;;;;;;;5056890;28;20034;-73
2023/11/15 07:43:55;;;;;;;;;;;;;;;;;;5057512;28;20375;-75
2023/11/15 07:46:22;;;;;;;;;;;;;;;;;;5070871;28;19950;-72
2023/11/15 07:48:48;;;;;;;;;;;;;;;;;;5054498;28;19920;-73
2023/11/15 07:51:18;;;;;;;;;;;;;;;;;;5051918;28;19924;-73
2023/11/15 07:53:43;;;;;;;;;;;;;;;;;;5054941;28;20034;-73
2023/11/15 07:56:08;;;;;;;;;;;;;;;;;;5056240;28;19922;-73
2023/11/15 07:58:34;;;;;;;;;;;;;;;;;;5059579;28;19916;-73
2023/11/15 08:00:59;;;;;;;;;;;;;;;;;;5056777;28;19931;-71
2023/11/15 08:03:28;;;;;;;;;;;;;;;;;;5039428;28;20348;-71
2023/11/15 08:05:55;;;;;;;;;;;;;;;;;;5055209;28;20288;-71
2023/11/15 08:08:20;;;;;;;;;;;;;;;;;;5039856;28;19916;-72
2023/11/15 08:10:48;;;;;;;;;;;;;;;;;;5068765;28;19992;-72
2023/11/15 08:13:13;;;;;;;;;;;;;;;;;;5054953;28;19957;-72
2023/11/15 08:15:39;;;;;;;;;;;;;;;;;;5068919;28;19920;-72
2023/11/15 08:18:04;;;;;;;;;;;;;;;;;;5056475;28;20474;-72
2023/11/15 08:20:29;;;;;;;;;;;;;;;;;;5045452;28;20014;-72
2023/11/15 08:22:55;;;;;;;;;;;;;;;;;;5054314;28;19970;-71
2023/11/15 08:25:24;;;;;;;;;;;;;;;;;;5039187;28;19936;-71
2023/11/15 08:27:52;;;;;;;;;;;;;;;;;;5055519;28;19917;-71
2023/11/15 08:30:17;;;;;;;;;;;;;;;;;;5041058;28;19935;-72
2023/11/15 08:32:42;;;;;;;;;;;;;;;;;;5062002;28;19924;-72
2023/11/15 08:35:10;;;;;;;;;;;;;;;;;;5041588;28;19995;-71
2023/11/15 08:37:35;;;;;;;;;;;;;;;;;;5046364;28;20604;-71
2023/11/15 08:40:00;;;;;;;;;;;;;;;;;;5067571;28;19920;-71
2023/11/15 08:42:26;;;;;;;;;;;;;;;;;;5053052;28;20092;-71
2023/11/15 08:44:53;;;;;;;;;;;;;;;;;;5039157;28;19916;-72
2023/11/15 08:47:33;;;;;;;;;;;;;;;;;;5067598;28;20050;-71
2023/11/15 08:49:58;;;;;;;;;;;;;;;;;;5058104;28;20255;-72
2023/11/15 08:52:23;;;;;;;;;;;;;;;;;;5053458;28;20508;-72
2023/11/15 08:54:52;;;;;;;;;;;;;;;;;;5054815;28;19923;-72
2023/11/15 08:57:17;;;;;;;;;;;;;;;;;;5052517;28;19916;-71
2023/11/15 08:59:45;;;;;;;;;;;;;;;;;;5046729;28;20329;-72
2023/11/15 09:02:11;;;;;;;;;;;;;;;;;;5054981;28;19916;-71
2023/11/15 09:04:38;;;;;;;;;;;;;;;;;;5038967;28;19928;-72
2023/11/15 09:07:04;;;;;;;;;;;;;;;;;;5039044;28;19917;-71
2023/11/15 09:09:30;;;;;;;;;;;;;;;;;;5038930;28;20410;-73
2023/11/15 09:11:56;;;;;;;;;;;;;;;;;;5067795;28;19927;-73
2023/11/15 09:14:22;;;;;;;;;;;;;;;;;;5069488;28;19923;-73
2023/11/15 09:16:50;;;;;;;;;;;;;;;;;;5052913;28;19943;-73
2023/11/15 09:19:18;;;;;;;;;;;;;;;;;;5056966;28;20387;-72
2023/11/15 09:21:44;;;;;;;;;;;;;;;;;;5040986;28;19927;-72
2023/11/15 09:24:10;;;;;;;;;;;;;;;;;;5054585;28;20315;-72
2023/11/15 09:26:37;;;;;;;;;;;;;;;;;;5056931;28;19977;-72
2023/11/15 09:29:03;;;;;;;;;;;;;;;;;;5052574;28;20634;-72
2023/11/15 09:31:29;;;;;;;;;;;;;;;;;;5037595;28;19959;-72
2023/11/15 09:33:55;;;;;;;;;;;;;;;;;;5067038;28;19921;-73
2023/11/15 09:36:20;;;;;;;;;;;;;;;;;;5054088;28;20061;-71
2023/11/15 09:38:46;;;;;;;;;;;;;;;;;;5070295;28;20860;-73
2023/11/15 09:41:11;;;;;;;;;;;;;;;;;;5042844;28;19972;-72
2023/11/15 09:43:38;;;;;;;;;;;;;;;;;;5045165;28;19941;-71
2023/11/15 09:46:08;;;;;;;;;;;;;;;;;;5061557;28;20482;-72
2023/11/15 09:48:33;;;;;;;;;;;;;;;;;;5062973;28;20421;-72
2023/11/15 09:50:59;;;;;;;;;;;;;;;;;;5073549;28;19927;-73
2023/11/15 09:53:28;;;;;;;;;;;;;;;;;;5063627;28;20501;-71
2023/11/15 09:55:53;;;;;;;;;;;;;;;;;;5044603;28;19916;-71
2023/11/15 09:58:18;;;;;;;;;;;;;;;;;;5059310;28;20457;-74
2023/11/15 10:00:46;;;;;;;;;;;;;;;;;;5076003;28;19912;-71
2023/11/15 10:03:12;;;;;;;;;;;;;;;;;;5044111;28;19924;-71
2023/11/15 10:05:39;;;;;;;;;;;;;;;;;;5060611;28;19912;-73
2023/11/15 10:08:04;;;;;;;;;;;;;;;;;;5059978;28;20373;-72
2023/11/15 10:10:31;;;;;;;;;;;;;;;;;;5075595;28;19988;-71
2023/11/15 10:12:56;;;;;;;;;;;;;;;;;;5074484;28;19924;-72
2023/11/15 10:15:24;;;;;;;;;;;;;;;;;;5061716;28;20405;-72
2023/11/15 10:17:52;;;;;;;;;;;;;;;;;;5047558;28;19920;-72
2023/11/15 10:20:19;;;;;;;;;;;;;;;;;;5057786;28;19959;-72
2023/11/15 10:22:45;;;;;;;;;;;;;;;;;;5062972;28;19927;-72
2023/11/15 10:25:13;;;;;;;;;;;;;;;;;;5074811;28;19916;-71
2023/11/15 10:27:39;;;;;;;;;;;;;;;;;;5063046;28;20324;-71
2023/11/15 10:30:05;;;;;;;;;;;;;;;;;;5060901;28;19916;-71
2023/11/15 10:32:30;;;;;;;;;;;;;;;;;;5044982;28;19917;-72
2023/11/15 10:34:55;;;;;;;;;;;;;;;;;;5060630;28;19912;-71
2023/11/15 10:37:21;;;;;;;;;;;;;;;;;;5073247;28;21731;-71
2023/11/15 10:39:47;;;;;;;;;;;;;;;;;;5045045;28;20035;-72
2023/11/15 10:42:13;;;;;;;;;;;;;;;;;;5063237;28;19923;-72
2023/11/15 10:44:38;;;;;;;;;;;;;;;;;;5057991;28;19920;-71
2023/11/15 10:47:04;;;;;;;;;;;;;;;;;;5063005;28;19955;-76
2023/11/15 10:49:29;;;;;;;;;;;;;;;;;;5074121;28;19920;-73
2023/11/15 10:51:54;;;;;;;;;;;;;;;;;;5088436;27;19957;-72
2023/11/15 10:54:19;;;;;;;;;;;;;;;;;;5077202;27;20302;-72
2023/11/15 11:00:10;;;;;;;;;;;;;;;;;;5095671;27;20013;-71
2023/11/15 11:02:35;;;;;;;;;;;;;;;;;;5063089;27;19999;-70
2023/11/15 11:05:00;;;;;;;;;;;;;;;;;;5079100;27;19920;-71
2023/11/15 11:07:28;;;;;;;;;;;;;;;;;;5074616;27;19922;-71
2023/11/15 11:09:53;;;;;;;;;;;;;;;;;;5062537;27;20376;-70
2023/11/15 11:12:20;;;;;;;;;;;;;;;;;;5078662;27;19919;-70
2023/11/15 11:14:46;;;;;;;;;;;;;;;;;;5094501;27;19923;-72
2023/11/15 11:17:14;;;;;;;;;;;;;;;;;;5076964;27;20286;-73
2023/11/15 11:19:39;;;;;;;;;;;;;;;;;;5063143;27;20014;-71
2023/11/15 11:22:06;;;;;;;;;;;;;;;;;;5059559;27;20763;-69
2023/11/15 11:24:34;;;;;;;;;;;;;;;;;;5094476;27;19923;-68
2023/11/15 11:27:04;;;;;;;;;;;;;;;;;;5076188;27;19919;-69
2023/11/15 11:29:31;;;;;;;;;;;;;;;;;;5074958;27;19928;-68
2023/11/15 11:31:56;;;;;;;;;;;;;;;;;;5077811;27;20206;-69
2023/11/15 11:34:24;;;;;;;;;;;;;;;;;;5073169;27;19926;-69
2023/11/15 11:36:50;;;;;;;;;;;;;;;;;;5076310;27;19922;-68
2023/11/15 11:39:18;;;;;;;;;;;;;;;;;;5062022;27;20367;-68
2023/11/15 11:41:43;;;;;;;;;;;;;;;;;;5063196;27;19926;-69
2023/11/15 11:44:09;;;;;;;;;;;;;;;;;;5095114;27;20395;-69
2023/11/15 11:49:27;;;;;;;;;;;;;;;;;;5078661;27;20272;-69
2023/11/15 11:51:53;;;;;;;;;;;;;;;;;;5052584;28;19931;-69
2023/11/15 11:54:23;;;;;;;;;;;;;;;;;;5054672;28;19920;-70
2023/11/15 11:56:49;;;;;;;;;;;;;;;;;;5038308;28;19920;-68
2023/11/15 11:59:17;;;;;;;;;;;;;;;;;;5071039;28;19923;-69
2023/11/15 12:01:42;;;;;;;;;;;;;;;;;;5067131;28;19957;-70
2023/11/15 12:04:08;;;;;;;;;;;;;;;;;;5059827;28;20536;-73
2023/11/15 12:06:33;;;;;;;;;;;;;;;;;;5052749;28;20026;-69
2023/11/15 12:08:59;;;;;;;;;;;;;;;;;;5054389;28;20072;-71
2023/11/15 12:11:24;;;;;;;;;;;;;;;;;;5055972;28;19920;-70
2023/11/15 12:13:50;;;;;;;;;;;;;;;;;;5058924;28;19978;-69
2023/11/15 12:16:16;;;;;;;;;;;;;;;;;;5056207;28;20293;-68
2023/11/15 12:18:42;;;;;;;;;;;;;;;;;;5056520;28;19920;-70
2023/11/15 12:21:09;;;;;;;;;;;;;;;;;;5054681;28;19916;-72
2023/11/15 12:23:35;;;;;;;;;;;;;;;;;;5054767;28;20332;-73
2023/11/15 12:26:01;;;;;;;;;;;;;;;;;;5069236;28;20848;-71
2023/11/15 12:28:26;;;;;;;;;;;;;;;;;;5055916;28;19931;-71
2023/11/15 12:30:52;;;;;;;;;;;;;;;;;;5052207;28;19920;-71
2023/11/15 12:33:19;;;;;;;;;;;;;;;;;;5069698;28;19926;-71
2023/11/15 12:35:45;;;;;;;;;;;;;;;;;;5056652;28;19920;-70
2023/11/15 12:38:13;;;;;;;;;;;;;;;;;;5055613;28;19912;-72
2023/11/15 12:40:41;;;;;;;;;;;;;;;;;;5039537;28;19955;-71
2023/11/15 12:43:06;;;;;;;;;;;;;;;;;;5041913;28;20038;-70
2023/11/15 12:45:32;;;;;;;;;;;;;;;;;;5069086;28;20375;-74
2023/11/15 12:47:57;;;;;;;;;;;;;;;;;;5052892;28;19966;-72
2023/11/15 12:50:25;;;;;;;;;;;;;;;;;;5069404;28;20496;-69
2023/11/15 12:52:51;;;;;;;;;;;;;;;;;;5078005;27;20372;-71
2023/11/15 12:55:16;;;;;;;;;;;;;;;;;;5075079;27;19926;-70
2023/11/15 12:57:44;;;;;;;;;;;;;;;;;;5078948;27;20444;-72
2023/11/15 13:00:13;;;;;;;;;;;;;;;;;;5078745;27;20100;-73
2023/11/15 13:02:38;;;;;;;;;;;;;;;;;;5060179;28;19920;-72
2023/11/15 13:05:05;;;;;;;;;;;;;;;;;;5077705;27;19915;-70
2023/11/15 13:07:32;;;;;;;;;;;;;;;;;;5076639;27;19920;-72
2023/11/15 13:09:57;;;;;;;;;;;;;;;;;;5061107;27;19916;-72
2023/11/15 13:12:23;;;;;;;;;;;;;;;;;;5049749;28;20481;-74
2023/11/15 13:14:48;;;;;;;;;;;;;;;;;;5074154;27;19924;-72
2023/11/15 13:17:17;;;;;;;;;;;;;;;;;;5061726;28;20181;-73
2023/11/15 13:19:42;;;;;;;;;;;;;;;;;;5079572;27;20366;-74
2023/11/15 13:22:10;;;;;;;;;;;;;;;;;;5075424;27;20019;-71
2023/11/15 13:24:37;;;;;;;;;;;;;;;;;;5061396;27;19929;-71
2023/11/15 13:27:02;;;;;;;;;;;;;;;;;;5060364;28;19963;-73
2023/11/15 13:29:31;;;;;;;;;;;;;;;;;;5072728;28;20182;-72
2023/11/15 13:31:58;;;;;;;;;;;;;;;;;;5071921;28;19922;-77
2023/11/15 13:34:26;;;;;;;;;;;;;;;;;;5077161;28;20429;-74
2023/11/15 13:36:51;;;;;;;;;;;;;;;;;;5074499;28;20000;-77
2023/11/15 13:42:33;;;;;;;;;;;;;;;;;;5094498;28;19968;-76
2023/11/15 13:44:58;;;;;;;;;;;;;;;;;;5075570;28;19920;-78
2023/11/15 13:47:28;;;;;;;;;;;;;;;;;;5092897;28;19916;-77
2023/11/15 13:49:56;;;;;;;;;;;;;;;;;;5078710;28;20016;-78
2023/11/15 13:52:21;;;;;;;;;;;;;;;;;;5043686;28;20030;-76
2023/11/15 13:54:52;;;;;;;;;;;;;;;;;;5054708;28;20441;-76
2023/11/15 13:57:17;;;;;;;;;;;;;;;;;;5056202;28;20018;-79
2023/11/15 13:59:46;;;;;;;;;;;;;;;;;;5041124;28;19926;-78
2023/11/15 14:02:11;;;;;;;;;;;;;;;;;;5036836;28;19920;-77
2023/11/15 14:04:39;;;;;;;;;;;;;;;;;;5028814;28;19978;-74
2023/11/15 14:07:08;;;;;;;;;;;;;;;;;;5056048;28;20567;-76
2023/11/15 14:09:36;;;;;;;;;;;;;;;;;;5052680;28;19934;-78
2023/11/15 14:12:04;;;;;;;;;;;;;;;;;;5056662;28;20434;-75
2023/11/15 14:14:30;;;;;;;;;;;;;;;;;;5067934;28;19945;-75
2023/11/15 14:17:06;;;;;;;;;;;;;;;;;;5052838;28;20225;-77
2023/11/15 14:19:32;;;;;;;;;;;;;;;;;;5055126;28;19920;-78
2023/11/15 14:22:00;;;;;;;;;;;;;;;;;;5052176;28;20286;-76
2023/11/15 14:24:25;;;;;;;;;;;;;;;;;;5053006;28;19931;-79
2023/11/15 14:26:50;;;;;;;;;;;;;;;;;;5059594;28;19916;-71
2023/11/15 14:29:16;;;;;;;;;;;;;;;;;;5044134;28;19916;-74
2023/11/15 14:31:41;;;;;;;;;;;;;;;;;;5057395;28;20343;-77
2023/11/15 14:34:09;;;;;;;;;;;;;;;;;;5059940;28;20387;-75
2023/11/15 14:36:41;;;;;;;;;;;;;;;;;;5056032;28;19924;-78
2023/11/15 14:39:07;;;;;;;;;;;;;;;;;;5054654;28;21213;-75
2023/11/15 14:41:35;;;;;;;;;;;;;;;;;;5070036;28;20142;-74
2023/11/15 14:44:03;;;;;;;;;;;;;;;;;;5044096;28;19953;-75
2023/11/15 14:46:30;;;;;;;;;;;;;;;;;;5056848;28;20165;-75
2023/11/15 14:48:58;;;;;;;;;;;;;;;;;;5069362;28;20348;-75
2023/11/15 14:51:24;;;;;;;;;;;;;;;;;;5038394;28;19928;-74
2023/11/15 14:53:55;;;;;;;;;;;;;;;;;;5046815;28;19924;-74
2023/11/15 14:56:22;;;;;;;;;;;;;;;;;;5042113;28;19923;-74
2023/11/15 14:58:48;;;;;;;;;;;;;;;;;;5069530;28;19920;-73
2023/11/15 15:01:14;;;;;;;;;;;;;;;;;;5060100;28;19969;-76
2023/11/15 15:03:40;;;;;;;;;;;;;;;;;;5057840;28;19920;-73
2023/11/15 15:06:05;;;;;;;;;;;;;;;;;;5059697;28;19916;-75
2023/11/15 15:08:31;;;;;;;;;;;;;;;;;;5071704;28;19917;-74
2023/11/15 15:10:57;;;;;;;;;;;;;;;;;;5070195;28;19920;-71
2023/11/15 15:13:22;;;;;;;;;;;;;;;;;;5072824;28;20371;-76
2023/11/15 15:15:48;;;;;;;;;;;;;;;;;;5058635;28;19920;-72
2023/11/15 15:18:13;;;;;;;;;;;;;;;;;;5055629;28;19923;-74
2023/11/15 15:20:39;;;;;;;;;;;;;;;;;;5059487;28;19920;-77
2023/11/15 15:23:04;;;;;;;;;;;;;;;;;;5053545;28;19927;-75
2023/11/15 15:25:30;;;;;;;;;;;;;;;;;;5057406;28;20182;-73
2023/11/15 15:27:56;;;;;;;;;;;;;;;;;;5071247;28;20326;-72
2023/11/15 15:30:24;;;;;;;;;;;;;;;;;;5041217;28;19920;-76
2023/11/15 15:32:49;;;;;;;;;;;;;;;;;;5071110;28;19928;-76
2023/11/15 15:35:14;;;;;;;;;;;;;;;;;;5047478;28;19927;-74
2023/11/15 15:37:40;;;;;;;;;;;;;;;;;;5070510;28;20325;-77
2023/11/15 15:40:50;;;;;;;;;;;;;;;;;;5054544;28;19919;-72
2023/11/15 15:43:01;;;;;;;;;;;;;;;;;;5046490;28;19917;-72
2023/11/15 15:45:28;;;;;;;;;;;;;;;;;;5041185;28;20023;-75
2023/11/15 15:47:55;;;;;;;;;;;;;;;;;;5040792;28;20517;-79
2023/11/15 15:50:20;;;;;;;;;;;;;;;;;;5048166;28;20357;-73
2023/11/15 15:52:46;;;;;;;;;;;;;;;;;;5075229;27;19971;-74
2023/11/15 15:55:13;;;;;;;;;;;;;;;;;;5075914;27;20375;-78
2023/11/15 15:57:38;;;;;;;;;;;;;;;;;;5077382;27;20019;-75
2023/11/15 16:00:04;;;;;;;;;;;;;;;;;;5079231;27;19915;-72
2023/11/15 16:02:34;;;;;;;;;;;;;;;;;;5067350;27;19924;-76
2023/11/15 16:04:59;;;;;;;;;;;;;;;;;;5075337;27;20018;-70
2023/11/15 16:07:24;;;;;;;;;;;;;;;;;;5078744;27;19912;-72
2023/11/15 16:09:50;;;;;;;;;;;;;;;;;;5093749;27;20556;-77
2023/11/15 16:12:18;;;;;;;;;;;;;;;;;;5076235;27;19972;-72
2023/11/15 16:14:43;;;;;;;;;;;;;;;;;;5096054;27;20324;-73
2023/11/15 16:17:09;;;;;;;;;;;;;;;;;;5092500;27;19927;-78
2023/11/15 16:19:34;;;;;;;;;;;;;;;;;;5094896;27;20191;-75
2023/11/15 16:21:59;;;;;;;;;;;;;;;;;;5061630;27;19955;-77
2023/11/15 16:24:25;;;;;;;;;;;;;;;;;;5062360;27;20256;-77
2023/11/15 16:26:50;;;;;;;;;;;;;;;;;;5061105;27;20022;-74
2023/11/15 16:29:15;;;;;;;;;;;;;;;;;;5094532;27;19919;-76
2023/11/15 16:31:41;;;;;;;;;;;;;;;;;;5072564;27;19920;-75
2023/11/15 16:34:06;;;;;;;;;;;;;;;;;;5094425;27;19927;-76
2023/11/15 16:36:33;;;;;;;;;;;;;;;;;;5075664;28;20357;-75
2023/11/15 16:39:01;;;;;;;;;;;;;;;;;;5075217;27;19962;-75
2023/11/15 16:41:26;;;;;;;;;;;;;;;;;;5060102;27;20002;-77
2023/11/15 16:43:53;;;;;;;;;;;;;;;;;;5062579;27;20748;-75
2023/11/15 16:46:18;;;;;;;;;;;;;;;;;;5060313;27;19920;-73
2023/11/15 16:48:44;;;;;;;;;;;;;;;;;;5094040;27;19920;-78
2023/11/15 16:51:09;;;;;;;;;;;;;;;;;;5074699;27;20290;-73
2023/11/15 16:53:34;;;;;;;;;;;;;;;;;;5094248;27;19924;-70
2023/11/15 16:55:59;;;;;;;;;;;;;;;;;;5093449;27;20046;-75
2023/11/15 16:58:25;;;;;;;;;;;;;;;;;;5077064;28;20052;-72
2023/11/15 17:00:50;;;;;;;;;;;;;;;;;;5061524;27;19977;-73